sensor_id;sensor_type;location;lat;lon;timestamp;P1;durP1;ratioP1;P2;durP2;ratioP2
61200;SDS011;47065;52.898;6.992;2023-03-17T00:00:43;4.28;;;3.00;;
61200;SDS011;47065;52.898;6.992;2023-03-17T00:03:23;5.45;;;3.75;;
61200;SDS011;47065;52.898;6.992;2023-03-17T00:05:50;4.93;;;3.60;;
61200;SDS011;47065;52.898;6.992;2023-03-17T00:08:19;7.05;;;3.15;;
61200;SDS011;47065;52.898;6.992;2023-03-17T00:10:50;5.03;;;3.08;;
61200;SDS011;47065;52.898;6.992;2023-03-17T00:13:16;3.67;;;3.20;;
61200;SDS011;47065;52.898;6.992;2023-03-17T00:15:43;4.80;;;3.53;;
61200;SDS011;47065;52.898;6.992;2023-03-17T00:18:13;6.20;;;3.83;;
61200;SDS011;47065;52.898;6.992;2023-03-17T00:20:41;4.95;;;3.15;;
61200;SDS011;47065;52.898;6.992;2023-03-17T00:23:17;11.00;;;4.93;;
61200;SDS011;47065;52.898;6.992;2023-03-17T00:25:46;4.43;;;3.83;;
61200;SDS011;47065;52.898;6.992;2023-03-17T00:28:15;6.22;;;3.78;;
61200;SDS011;47065;52.898;6.992;2023-03-17T00:30:42;6.65;;;3.92;;
61200;SDS011;47065;52.898;6.992;2023-03-17T00:33:08;6.20;;;4.07;;
61200;SDS011;47065;52.898;6.992;2023-03-17T00:35:35;6.10;;;4.22;;
61200;SDS011;47065;52.898;6.992;2023-03-17T00:38:00;5.35;;;3.97;;
61200;SDS011;47065;52.898;6.992;2023-03-17T00:40:27;7.38;;;4.28;;
61200;SDS011;47065;52.898;6.992;2023-03-17T00:42:55;6.63;;;4.63;;
61200;SDS011;47065;52.898;6.992;2023-03-17T00:45:23;5.55;;;3.70;;
61200;SDS011;47065;52.898;6.992;2023-03-17T00:47:51;4.10;;;3.70;;
61200;SDS011;47065;52.898;6.992;2023-03-17T00:50:20;7.82;;;4.30;;
61200;SDS011;47065;52.898;6.992;2023-03-17T00:52:48;5.72;;;3.85;;
61200;SDS011;47065;52.898;6.992;2023-03-17T00:55:20;5.43;;;3.38;;
61200;SDS011;47065;52.898;6.992;2023-03-17T00:57:47;7.93;;;4.60;;
61200;SDS011;47065;52.898;6.992;2023-03-17T01:00:24;6.95;;;4.45;;
61200;SDS011;47065;52.898;6.992;2023-03-17T01:02:51;6.78;;;4.00;;
61200;SDS011;47065;52.898;6.992;2023-03-17T01:05:18;5.88;;;4.10;;
61200;SDS011;47065;52.898;6.992;2023-03-17T01:07:46;11.10;;;4.40;;
61200;SDS011;47065;52.898;6.992;2023-03-17T01:10:18;6.25;;;4.22;;
61200;SDS011;47065;52.898;6.992;2023-03-17T01:12:46;7.20;;;4.22;;
61200;SDS011;47065;52.898;6.992;2023-03-17T01:15:13;6.78;;;4.35;;
61200;SDS011;47065;52.898;6.992;2023-03-17T01:17:39;5.78;;;4.72;;
61200;SDS011;47065;52.898;6.992;2023-03-17T01:20:05;6.25;;;4.30;;
61200;SDS011;47065;52.898;6.992;2023-03-17T01:22:33;6.57;;;4.50;;
61200;SDS011;47065;52.898;6.992;2023-03-17T01:24:59;9.57;;;4.40;;
61200;SDS011;47065;52.898;6.992;2023-03-17T01:27:25;4.90;;;4.40;;
61200;SDS011;47065;52.898;6.992;2023-03-17T01:29:51;7.20;;;4.47;;
61200;SDS011;47065;52.898;6.992;2023-03-17T01:32:18;8.18;;;4.30;;
61200;SDS011;47065;52.898;6.992;2023-03-17T01:34:43;5.03;;;4.20;;
61200;SDS011;47065;52.898;6.992;2023-03-17T01:37:10;5.25;;;3.95;;
61200;SDS011;47065;52.898;6.992;2023-03-17T01:39:36;4.25;;;3.60;;
61200;SDS011;47065;52.898;6.992;2023-03-17T01:42:02;5.60;;;4.25;;
61200;SDS011;47065;52.898;6.992;2023-03-17T01:44:28;5.38;;;3.80;;
61200;SDS011;47065;52.898;6.992;2023-03-17T01:46:53;6.80;;;4.82;;
61200;SDS011;47065;52.898;6.992;2023-03-17T01:52:11;6.00;;;4.57;;
61200;SDS011;47065;52.898;6.992;2023-03-17T01:59:57;6.35;;;4.43;;
61200;SDS011;47065;52.898;6.992;2023-03-17T02:02:30;5.43;;;4.28;;
61200;SDS011;47065;52.898;6.992;2023-03-17T02:04:59;6.90;;;4.07;;
61200;SDS011;47065;52.898;6.992;2023-03-17T02:07:26;6.22;;;5.07;;
61200;SDS011;47065;52.898;6.992;2023-03-17T02:09:52;6.20;;;5.32;;
61200;SDS011;47065;52.898;6.992;2023-03-17T02:12:20;6.30;;;4.53;;
61200;SDS011;47065;52.898;6.992;2023-03-17T02:14:48;4.68;;;4.05;;
61200;SDS011;47065;52.898;6.992;2023-03-17T02:17:16;7.80;;;5.68;;
61200;SDS011;47065;52.898;6.992;2023-03-17T02:19:42;5.47;;;4.35;;
61200;SDS011;47065;52.898;6.992;2023-03-17T02:22:08;7.97;;;4.75;;
61200;SDS011;47065;52.898;6.992;2023-03-17T02:27:52;8.15;;;3.97;;
61200;SDS011;47065;52.898;6.992;2023-03-17T02:30:19;5.53;;;4.15;;
61200;SDS011;47065;52.898;6.992;2023-03-17T02:32:46;7.63;;;4.20;;
61200;SDS011;47065;52.898;6.992;2023-03-17T02:35:12;7.38;;;4.75;;
61200;SDS011;47065;52.898;6.992;2023-03-17T02:37:38;5.00;;;4.45;;
61200;SDS011;47065;52.898;6.992;2023-03-17T02:40:04;6.80;;;5.15;;
61200;SDS011;47065;52.898;6.992;2023-03-17T02:42:31;6.10;;;4.50;;
61200;SDS011;47065;52.898;6.992;2023-03-17T02:44:57;8.05;;;4.30;;
61200;SDS011;47065;52.898;6.992;2023-03-17T02:47:23;6.85;;;5.00;;
61200;SDS011;47065;52.898;6.992;2023-03-17T02:49:48;7.15;;;5.15;;
61200;SDS011;47065;52.898;6.992;2023-03-17T02:52:15;6.18;;;3.60;;
61200;SDS011;47065;52.898;6.992;2023-03-17T02:54:41;6.47;;;4.55;;
61200;SDS011;47065;52.898;6.992;2023-03-17T02:57:06;6.90;;;3.92;;
61200;SDS011;47065;52.898;6.992;2023-03-17T02:59:32;6.50;;;4.50;;
61200;SDS011;47065;52.898;6.992;2023-03-17T03:01:58;5.60;;;4.00;;
61200;SDS011;47065;52.898;6.992;2023-03-17T03:04:25;6.32;;;3.83;;
61200;SDS011;47065;52.898;6.992;2023-03-17T03:06:51;7.28;;;4.60;;
61200;SDS011;47065;52.898;6.992;2023-03-17T03:09:18;4.50;;;4.03;;
61200;SDS011;47065;52.898;6.992;2023-03-17T03:11:44;5.10;;;3.80;;
61200;SDS011;47065;52.898;6.992;2023-03-17T03:14:11;4.97;;;3.83;;
61200;SDS011;47065;52.898;6.992;2023-03-17T03:16:36;5.57;;;3.42;;
61200;SDS011;47065;52.898;6.992;2023-03-17T03:19:03;5.15;;;3.65;;
61200;SDS011;47065;52.898;6.992;2023-03-17T03:21:30;5.43;;;4.35;;
61200;SDS011;47065;52.898;6.992;2023-03-17T03:23:55;6.13;;;4.30;;
61200;SDS011;47065;52.898;6.992;2023-03-17T03:26:21;6.20;;;3.80;;
61200;SDS011;47065;52.898;6.992;2023-03-17T03:28:47;7.10;;;4.07;;
61200;SDS011;47065;52.898;6.992;2023-03-17T03:31:12;8.38;;;4.28;;
61200;SDS011;47065;52.898;6.992;2023-03-17T03:33:39;5.95;;;4.28;;
61200;SDS011;47065;52.898;6.992;2023-03-17T03:36:06;4.75;;;3.90;;
61200;SDS011;47065;52.898;6.992;2023-03-17T03:38:33;6.40;;;4.35;;
61200;SDS011;47065;52.898;6.992;2023-03-17T03:40:59;6.93;;;4.20;;
61200;SDS011;47065;52.898;6.992;2023-03-17T03:43:25;5.35;;;3.85;;
61200;SDS011;47065;52.898;6.992;2023-03-17T03:45:51;5.20;;;4.30;;
61200;SDS011;47065;52.898;6.992;2023-03-17T03:48:18;7.78;;;5.45;;
61200;SDS011;47065;52.898;6.992;2023-03-17T03:50:45;6.25;;;4.35;;
61200;SDS011;47065;52.898;6.992;2023-03-17T03:53:11;7.18;;;3.58;;
61200;SDS011;47065;52.898;6.992;2023-03-17T03:55:37;10.73;;;4.63;;
61200;SDS011;47065;52.898;6.992;2023-03-17T03:58:03;5.55;;;4.40;;
61200;SDS011;47065;52.898;6.992;2023-03-17T04:00:29;3.88;;;3.47;;
61200;SDS011;47065;52.898;6.992;2023-03-17T04:02:54;6.00;;;3.60;;
61200;SDS011;47065;52.898;6.992;2023-03-17T04:05:20;6.07;;;3.85;;
61200;SDS011;47065;52.898;6.992;2023-03-17T04:07:46;5.80;;;4.10;;
61200;SDS011;47065;52.898;6.992;2023-03-17T04:10:12;5.85;;;3.88;;
61200;SDS011;47065;52.898;6.992;2023-03-17T04:12:39;5.82;;;4.07;;
61200;SDS011;47065;52.898;6.992;2023-03-17T04:15:06;7.47;;;3.85;;
61200;SDS011;47065;52.898;6.992;2023-03-17T04:17:33;5.68;;;3.95;;
61200;SDS011;47065;52.898;6.992;2023-03-17T04:19:59;7.72;;;4.30;;
61200;SDS011;47065;52.898;6.992;2023-03-17T04:22:24;5.72;;;4.10;;
61200;SDS011;47065;52.898;6.992;2023-03-17T04:24:51;10.10;;;4.55;;
61200;SDS011;47065;52.898;6.992;2023-03-17T04:27:17;4.50;;;3.67;;
61200;SDS011;47065;52.898;6.992;2023-03-17T04:29:43;5.47;;;3.88;;
61200;SDS011;47065;52.898;6.992;2023-03-17T04:32:12;3.33;;;3.03;;
61200;SDS011;47065;52.898;6.992;2023-03-17T04:34:38;9.57;;;4.22;;
61200;SDS011;47065;52.898;6.992;2023-03-17T04:37:05;4.88;;;3.10;;
61200;SDS011;47065;52.898;6.992;2023-03-17T04:39:32;4.72;;;4.30;;
61200;SDS011;47065;52.898;6.992;2023-03-17T04:41:58;5.07;;;4.53;;
61200;SDS011;47065;52.898;6.992;2023-03-17T04:44:24;5.75;;;3.45;;
61200;SDS011;47065;52.898;6.992;2023-03-17T04:46:50;4.38;;;3.97;;
61200;SDS011;47065;52.898;6.992;2023-03-17T04:49:16;11.45;;;4.32;;
61200;SDS011;47065;52.898;6.992;2023-03-17T04:51:42;4.65;;;4.07;;
61200;SDS011;47065;52.898;6.992;2023-03-17T04:54:08;7.30;;;3.85;;
61200;SDS011;47065;52.898;6.992;2023-03-17T04:56:34;5.03;;;3.58;;
61200;SDS011;47065;52.898;6.992;2023-03-17T04:59:01;4.13;;;3.47;;
61200;SDS011;47065;52.898;6.992;2023-03-17T05:01:26;5.57;;;3.50;;
61200;SDS011;47065;52.898;6.992;2023-03-17T05:03:52;4.35;;;3.50;;
61200;SDS011;47065;52.898;6.992;2023-03-17T05:06:18;4.03;;;3.53;;
61200;SDS011;47065;52.898;6.992;2023-03-17T05:08:43;8.98;;;4.57;;
61200;SDS011;47065;52.898;6.992;2023-03-17T05:11:10;3.50;;;3.20;;
61200;SDS011;47065;52.898;6.992;2023-03-17T05:13:36;6.80;;;3.70;;
61200;SDS011;47065;52.898;6.992;2023-03-17T05:16:02;5.80;;;2.90;;
61200;SDS011;47065;52.898;6.992;2023-03-17T05:18:28;5.88;;;4.05;;
61200;SDS011;47065;52.898;6.992;2023-03-17T05:20:54;6.28;;;3.10;;
61200;SDS011;47065;52.898;6.992;2023-03-17T05:23:20;7.93;;;3.65;;
61200;SDS011;47065;52.898;6.992;2023-03-17T05:25:47;8.02;;;3.22;;
61200;SDS011;47065;52.898;6.992;2023-03-17T05:28:13;3.92;;;3.55;;
61200;SDS011;47065;52.898;6.992;2023-03-17T05:30:39;8.38;;;4.07;;
61200;SDS011;47065;52.898;6.992;2023-03-17T05:33:05;4.45;;;3.40;;
61200;SDS011;47065;52.898;6.992;2023-03-17T05:35:30;5.45;;;4.55;;
61200;SDS011;47065;52.898;6.992;2023-03-17T05:37:56;6.05;;;4.10;;
61200;SDS011;47065;52.898;6.992;2023-03-17T05:40:22;7.85;;;3.63;;
61200;SDS011;47065;52.898;6.992;2023-03-17T05:42:51;7.68;;;4.60;;
61200;SDS011;47065;52.898;6.992;2023-03-17T05:45:17;9.07;;;5.03;;
61200;SDS011;47065;52.898;6.992;2023-03-17T05:47:42;8.43;;;5.38;;
61200;SDS011;47065;52.898;6.992;2023-03-17T05:50:10;10.48;;;5.30;;
61200;SDS011;47065;52.898;6.992;2023-03-17T05:52:36;7.20;;;4.68;;
61200;SDS011;47065;52.898;6.992;2023-03-17T05:55:02;8.65;;;4.45;;
61200;SDS011;47065;52.898;6.992;2023-03-17T05:57:29;6.47;;;4.40;;
61200;SDS011;47065;52.898;6.992;2023-03-17T05:59:54;10.00;;;5.75;;
61200;SDS011;47065;52.898;6.992;2023-03-17T06:02:20;11.73;;;6.85;;
61200;SDS011;47065;52.898;6.992;2023-03-17T06:04:46;14.52;;;6.57;;
61200;SDS011;47065;52.898;6.992;2023-03-17T06:07:11;6.68;;;4.40;;
61200;SDS011;47065;52.898;6.992;2023-03-17T06:09:37;5.22;;;3.80;;
61200;SDS011;47065;52.898;6.992;2023-03-17T06:12:04;6.25;;;3.97;;
61200;SDS011;47065;52.898;6.992;2023-03-17T06:14:31;7.70;;;4.43;;
61200;SDS011;47065;52.898;6.992;2023-03-17T06:16:56;6.03;;;3.40;;
61200;SDS011;47065;52.898;6.992;2023-03-17T06:19:22;5.55;;;2.78;;
61200;SDS011;47065;52.898;6.992;2023-03-17T06:21:48;4.53;;;3.00;;
61200;SDS011;47065;52.898;6.992;2023-03-17T06:24:14;4.47;;;2.95;;
61200;SDS011;47065;52.898;6.992;2023-03-17T06:26:40;4.80;;;3.28;;
61200;SDS011;47065;52.898;6.992;2023-03-17T06:29:07;4.95;;;3.60;;
61200;SDS011;47065;52.898;6.992;2023-03-17T06:31:33;3.60;;;2.90;;
61200;SDS011;47065;52.898;6.992;2023-03-17T06:34:00;5.13;;;2.85;;
61200;SDS011;47065;52.898;6.992;2023-03-17T06:36:26;4.90;;;2.97;;
61200;SDS011;47065;52.898;6.992;2023-03-17T06:38:52;6.22;;;3.53;;
61200;SDS011;47065;52.898;6.992;2023-03-17T06:41:17;6.07;;;2.72;;
61200;SDS011;47065;52.898;6.992;2023-03-17T06:43:43;4.10;;;3.10;;
61200;SDS011;47065;52.898;6.992;2023-03-17T06:46:09;3.05;;;2.75;;
61200;SDS011;47065;52.898;6.992;2023-03-17T06:48:35;4.85;;;3.20;;
61200;SDS011;47065;52.898;6.992;2023-03-17T06:51:02;6.03;;;3.78;;
61200;SDS011;47065;52.898;6.992;2023-03-17T06:53:28;5.47;;;2.90;;
61200;SDS011;47065;52.898;6.992;2023-03-17T06:55:54;5.40;;;3.00;;
61200;SDS011;47065;52.898;6.992;2023-03-17T06:58:20;3.80;;;3.00;;
61200;SDS011;47065;52.898;6.992;2023-03-17T07:00:46;3.75;;;2.70;;
61200;SDS011;47065;52.898;6.992;2023-03-17T07:03:13;2.80;;;2.60;;
61200;SDS011;47065;52.898;6.992;2023-03-17T07:05:42;3.42;;;2.90;;
61200;SDS011;47065;52.898;6.992;2023-03-17T07:08:16;3.72;;;3.05;;
61200;SDS011;47065;52.898;6.992;2023-03-17T07:10:43;8.55;;;2.53;;
61200;SDS011;47065;52.898;6.992;2023-03-17T07:13:09;4.80;;;2.75;;
61200;SDS011;47065;52.898;6.992;2023-03-17T07:15:36;4.10;;;2.80;;
61200;SDS011;47065;52.898;6.992;2023-03-17T07:18:02;3.55;;;2.90;;
61200;SDS011;47065;52.898;6.992;2023-03-17T07:20:30;4.78;;;3.03;;
61200;SDS011;47065;52.898;6.992;2023-03-17T07:22:56;3.80;;;2.95;;
61200;SDS011;47065;52.898;6.992;2023-03-17T07:25:22;4.65;;;2.42;;
61200;SDS011;47065;52.898;6.992;2023-03-17T07:27:48;3.17;;;2.72;;
61200;SDS011;47065;52.898;6.992;2023-03-17T07:30:16;4.88;;;3.03;;
61200;SDS011;47065;52.898;6.992;2023-03-17T07:32:43;5.10;;;2.70;;
61200;SDS011;47065;52.898;6.992;2023-03-17T07:35:10;4.10;;;2.50;;
61200;SDS011;47065;52.898;6.992;2023-03-17T07:37:36;5.18;;;2.67;;
61200;SDS011;47065;52.898;6.992;2023-03-17T07:40:02;2.67;;;2.30;;
61200;SDS011;47065;52.898;6.992;2023-03-17T07:42:31;4.63;;;2.50;;
61200;SDS011;47065;52.898;6.992;2023-03-17T07:44:58;5.45;;;3.35;;
61200;SDS011;47065;52.898;6.992;2023-03-17T07:47:23;10.88;;;2.70;;
61200;SDS011;47065;52.898;6.992;2023-03-17T07:49:49;4.25;;;2.70;;
61200;SDS011;47065;52.898;6.992;2023-03-17T07:52:14;4.85;;;2.05;;
61200;SDS011;47065;52.898;6.992;2023-03-17T07:54:40;2.75;;;2.53;;
61200;SDS011;47065;52.898;6.992;2023-03-17T07:57:06;3.10;;;2.22;;
61200;SDS011;47065;52.898;6.992;2023-03-17T07:59:32;3.95;;;2.10;;
61200;SDS011;47065;52.898;6.992;2023-03-17T08:01:58;5.10;;;2.42;;
61200;SDS011;47065;52.898;6.992;2023-03-17T08:04:25;6.68;;;2.88;;
61200;SDS011;47065;52.898;6.992;2023-03-17T08:06:51;2.50;;;2.30;;
61200;SDS011;47065;52.898;6.992;2023-03-17T08:09:18;2.83;;;1.88;;
61200;SDS011;47065;52.898;6.992;2023-03-17T08:11:46;5.95;;;2.58;;
61200;SDS011;47065;52.898;6.992;2023-03-17T08:14:12;3.38;;;2.42;;
61200;SDS011;47065;52.898;6.992;2023-03-17T08:16:38;4.57;;;2.25;;
61200;SDS011;47065;52.898;6.992;2023-03-17T08:19:05;2.55;;;2.35;;
61200;SDS011;47065;52.898;6.992;2023-03-17T08:21:31;4.25;;;2.85;;
61200;SDS011;47065;52.898;6.992;2023-03-17T08:23:57;3.40;;;2.45;;
61200;SDS011;47065;52.898;6.992;2023-03-17T08:26:23;6.65;;;2.83;;
61200;SDS011;47065;52.898;6.992;2023-03-17T08:28:49;4.03;;;2.80;;
61200;SDS011;47065;52.898;6.992;2023-03-17T08:31:17;4.60;;;2.17;;
61200;SDS011;47065;52.898;6.992;2023-03-17T08:33:46;5.38;;;2.80;;
61200;SDS011;47065;52.898;6.992;2023-03-17T08:36:17;3.95;;;2.22;;
61200;SDS011;47065;52.898;6.992;2023-03-17T08:38:43;2.95;;;2.33;;
61200;SDS011;47065;52.898;6.992;2023-03-17T08:41:11;3.72;;;2.80;;
61200;SDS011;47065;52.898;6.992;2023-03-17T08:43:39;5.47;;;2.33;;
61200;SDS011;47065;52.898;6.992;2023-03-17T08:46:13;3.60;;;1.90;;
61200;SDS011;47065;52.898;6.992;2023-03-17T08:48:41;4.93;;;2.60;;
61200;SDS011;47065;52.898;6.992;2023-03-17T08:51:07;5.43;;;2.33;;
61200;SDS011;47065;52.898;6.992;2023-03-17T08:53:33;2.53;;;2.10;;
61200;SDS011;47065;52.898;6.992;2023-03-17T08:55:59;3.00;;;2.03;;
61200;SDS011;47065;52.898;6.992;2023-03-17T08:58:26;7.47;;;2.72;;
61200;SDS011;47065;52.898;6.992;2023-03-17T09:00:52;5.35;;;2.85;;
61200;SDS011;47065;52.898;6.992;2023-03-17T09:03:18;4.43;;;2.53;;
61200;SDS011;47065;52.898;6.992;2023-03-17T09:05:45;4.22;;;2.80;;
61200;SDS011;47065;52.898;6.992;2023-03-17T09:08:11;4.07;;;3.00;;
61200;SDS011;47065;52.898;6.992;2023-03-17T09:10:37;4.80;;;2.30;;
61200;SDS011;47065;52.898;6.992;2023-03-17T09:13:03;5.35;;;3.10;;
61200;SDS011;47065;52.898;6.992;2023-03-17T09:15:29;3.95;;;3.05;;
61200;SDS011;47065;52.898;6.992;2023-03-17T09:17:56;2.53;;;2.13;;
61200;SDS011;47065;52.898;6.992;2023-03-17T09:20:22;4.57;;;2.55;;
61200;SDS011;47065;52.898;6.992;2023-03-17T09:22:48;4.78;;;2.60;;
61200;SDS011;47065;52.898;6.992;2023-03-17T09:25:14;4.40;;;2.40;;
61200;SDS011;47065;52.898;6.992;2023-03-17T09:27:40;2.90;;;2.15;;
61200;SDS011;47065;52.898;6.992;2023-03-17T09:30:06;3.17;;;2.28;;
61200;SDS011;47065;52.898;6.992;2023-03-17T09:32:34;3.10;;;2.85;;
61200;SDS011;47065;52.898;6.992;2023-03-17T09:35:00;3.10;;;2.53;;
61200;SDS011;47065;52.898;6.992;2023-03-17T09:37:25;3.65;;;2.20;;
61200;SDS011;47065;52.898;6.992;2023-03-17T09:39:51;3.47;;;2.42;;
61200;SDS011;47065;52.898;6.992;2023-03-17T09:45:14;5.43;;;2.38;;
61200;SDS011;47065;52.898;6.992;2023-03-17T09:51:08;4.28;;;2.33;;
61200;SDS011;47065;52.898;6.992;2023-03-17T09:56:29;3.63;;;2.22;;
61200;SDS011;47065;52.898;6.992;2023-03-17T10:01:55;4.60;;;2.40;;
61200;SDS011;47065;52.898;6.992;2023-03-17T10:04:21;4.65;;;2.45;;
61200;SDS011;47065;52.898;6.992;2023-03-17T10:06:48;4.93;;;3.05;;
61200;SDS011;47065;52.898;6.992;2023-03-17T10:15:17;4.03;;;2.42;;
61200;SDS011;47065;52.898;6.992;2023-03-17T10:17:50;3.33;;;2.53;;
61200;SDS011;47065;52.898;6.992;2023-03-17T10:20:20;3.45;;;2.60;;
61200;SDS011;47065;52.898;6.992;2023-03-17T10:22:58;4.07;;;2.42;;
61200;SDS011;47065;52.898;6.992;2023-03-17T10:25:32;4.93;;;2.80;;
61200;SDS011;47065;52.898;6.992;2023-03-17T10:28:01;4.65;;;2.53;;
61200;SDS011;47065;52.898;6.992;2023-03-17T10:30:36;6.00;;;3.10;;
61200;SDS011;47065;52.898;6.992;2023-03-17T10:33:03;3.00;;;2.50;;
61200;SDS011;47065;52.898;6.992;2023-03-17T10:35:32;4.88;;;2.55;;
61200;SDS011;47065;52.898;6.992;2023-03-17T10:40:43;5.03;;;2.47;;
61200;SDS011;47065;52.898;6.992;2023-03-17T10:43:15;3.78;;;2.42;;
61200;SDS011;47065;52.898;6.992;2023-03-17T10:45:47;5.43;;;3.03;;
61200;SDS011;47065;52.898;6.992;2023-03-17T10:48:23;3.05;;;2.70;;
61200;SDS011;47065;52.898;6.992;2023-03-17T10:50:49;4.13;;;3.03;;
61200;SDS011;47065;52.898;6.992;2023-03-17T10:53:25;10.20;;;3.88;;
61200;SDS011;47065;52.898;6.992;2023-03-17T10:55:58;5.10;;;2.53;;
61200;SDS011;47065;52.898;6.992;2023-03-17T10:58:45;4.70;;;2.70;;
61200;SDS011;47065;52.898;6.992;2023-03-17T11:01:20;5.72;;;3.30;;
61200;SDS011;47065;52.898;6.992;2023-03-17T11:03:47;6.30;;;2.90;;
61200;SDS011;47065;52.898;6.992;2023-03-17T11:06:14;5.60;;;3.92;;
61200;SDS011;47065;52.898;6.992;2023-03-17T11:08:47;3.53;;;2.65;;
61200;SDS011;47065;52.898;6.992;2023-03-17T11:11:30;3.95;;;3.17;;
61200;SDS011;47065;52.898;6.992;2023-03-17T11:16:28;4.28;;;3.22;;
61200;SDS011;47065;52.898;6.992;2023-03-17T11:18:59;7.18;;;3.38;;
61200;SDS011;47065;52.898;6.992;2023-03-17T11:21:28;11.35;;;3.70;;
61200;SDS011;47065;52.898;6.992;2023-03-17T11:26:40;5.90;;;3.55;;
61200;SDS011;47065;52.898;6.992;2023-03-17T11:29:36;6.13;;;3.17;;
61200;SDS011;47065;52.898;6.992;2023-03-17T11:32:15;6.90;;;3.40;;
61200;SDS011;47065;52.898;6.992;2023-03-17T11:40:33;7.15;;;3.22;;
61200;SDS011;47065;52.898;6.992;2023-03-17T11:46:19;5.75;;;3.13;;
61200;SDS011;47065;52.898;6.992;2023-03-17T11:51:47;4.90;;;3.55;;
61200;SDS011;47065;52.898;6.992;2023-03-17T11:57:07;10.70;;;3.67;;
61200;SDS011;47065;52.898;6.992;2023-03-17T11:59:59;4.40;;;3.58;;
61200;SDS011;47065;52.898;6.992;2023-03-17T12:02:41;5.97;;;3.55;;
61200;SDS011;47065;52.898;6.992;2023-03-17T12:05:14;5.93;;;3.55;;
61200;SDS011;47065;52.898;6.992;2023-03-17T12:07:48;7.05;;;3.10;;
61200;SDS011;47065;52.898;6.992;2023-03-17T12:15:46;6.03;;;3.33;;
61200;SDS011;47065;52.898;6.992;2023-03-17T12:18:30;6.65;;;3.72;;
61200;SDS011;47065;52.898;6.992;2023-03-17T12:24:03;8.15;;;3.67;;
61200;SDS011;47065;52.898;6.992;2023-03-17T12:31:43;5.85;;;4.00;;
61200;SDS011;47065;52.898;6.992;2023-03-17T12:37:10;6.13;;;3.65;;
61200;SDS011;47065;52.898;6.992;2023-03-17T12:39:36;8.65;;;3.75;;
61200;SDS011;47065;52.898;6.992;2023-03-17T12:47:30;6.18;;;4.15;;
61200;SDS011;47065;52.898;6.992;2023-03-17T12:53:34;6.93;;;4.88;;
61200;SDS011;47065;52.898;6.992;2023-03-17T12:58:50;8.00;;;4.15;;
61200;SDS011;47065;52.898;6.992;2023-03-17T13:01:31;11.75;;;6.00;;
61200;SDS011;47065;52.898;6.992;2023-03-17T13:04:10;7.50;;;4.95;;
61200;SDS011;47065;52.898;6.992;2023-03-17T13:06:38;5.75;;;3.90;;
61200;SDS011;47065;52.898;6.992;2023-03-17T13:09:27;7.50;;;4.35;;
61200;SDS011;47065;52.898;6.992;2023-03-17T13:11:57;6.78;;;4.05;;
61200;SDS011;47065;52.898;6.992;2023-03-17T13:14:39;6.20;;;4.18;;
61200;SDS011;47065;52.898;6.992;2023-03-17T13:22:34;6.38;;;3.60;;
61200;SDS011;47065;52.898;6.992;2023-03-17T13:35:40;7.35;;;4.00;;
61200;SDS011;47065;52.898;6.992;2023-03-17T13:46:18;7.20;;;3.70;;
61200;SDS011;47065;52.898;6.992;2023-03-17T13:49:00;5.07;;;3.60;;
61200;SDS011;47065;52.898;6.992;2023-03-17T13:51:31;6.82;;;5.07;;
61200;SDS011;47065;52.898;6.992;2023-03-17T13:54:08;7.10;;;4.13;;
61200;SDS011;47065;52.898;6.992;2023-03-17T13:57:37;8.95;;;4.30;;
61200;SDS011;47065;52.898;6.992;2023-03-17T14:02:22;8.85;;;4.50;;
61200;SDS011;47065;52.898;6.992;2023-03-17T14:07:28;6.68;;;4.32;;
61200;SDS011;47065;52.898;6.992;2023-03-17T14:10:01;10.05;;;4.07;;
61200;SDS011;47065;52.898;6.992;2023-03-17T14:12:40;7.13;;;4.00;;
61200;SDS011;47065;52.898;6.992;2023-03-17T14:15:13;5.55;;;3.58;;
61200;SDS011;47065;52.898;6.992;2023-03-17T14:18:07;6.18;;;4.28;;
61200;SDS011;47065;52.898;6.992;2023-03-17T14:20:39;6.47;;;4.03;;
61200;SDS011;47065;52.898;6.992;2023-03-17T14:23:16;7.53;;;3.85;;
61200;SDS011;47065;52.898;6.992;2023-03-17T14:25:42;6.97;;;4.57;;
61200;SDS011;47065;52.898;6.992;2023-03-17T14:28:13;5.38;;;3.70;;
61200;SDS011;47065;52.898;6.992;2023-03-17T14:30:50;8.30;;;5.00;;
61200;SDS011;47065;52.898;6.992;2023-03-17T14:33:36;7.93;;;3.92;;
61200;SDS011;47065;52.898;6.992;2023-03-17T14:36:05;6.85;;;3.95;;
61200;SDS011;47065;52.898;6.992;2023-03-17T14:38:34;7.72;;;4.70;;
61200;SDS011;47065;52.898;6.992;2023-03-17T14:43:29;7.80;;;4.47;;
61200;SDS011;47065;52.898;6.992;2023-03-17T14:46:02;6.88;;;4.30;;
61200;SDS011;47065;52.898;6.992;2023-03-17T14:48:34;6.40;;;3.97;;
61200;SDS011;47065;52.898;6.992;2023-03-17T14:51:03;7.97;;;4.45;;
61200;SDS011;47065;52.898;6.992;2023-03-17T14:53:34;7.85;;;4.25;;
61200;SDS011;47065;52.898;6.992;2023-03-17T14:56:03;8.10;;;4.32;;
61200;SDS011;47065;52.898;6.992;2023-03-17T14:58:35;7.40;;;4.65;;
61200;SDS011;47065;52.898;6.992;2023-03-17T15:01:04;7.43;;;4.65;;
61200;SDS011;47065;52.898;6.992;2023-03-17T15:03:37;6.32;;;4.65;;
61200;SDS011;47065;52.898;6.992;2023-03-17T15:06:05;6.80;;;4.95;;
61200;SDS011;47065;52.898;6.992;2023-03-17T15:08:45;5.82;;;4.35;;
61200;SDS011;47065;52.898;6.992;2023-03-17T15:16:47;7.68;;;4.15;;
61200;SDS011;47065;52.898;6.992;2023-03-17T15:19:28;9.00;;;4.43;;
61200;SDS011;47065;52.898;6.992;2023-03-17T15:22:02;6.68;;;4.38;;
61200;SDS011;47065;52.898;6.992;2023-03-17T15:24:44;12.30;;;4.72;;
61200;SDS011;47065;52.898;6.992;2023-03-17T15:27:23;8.85;;;4.75;;
61200;SDS011;47065;52.898;6.992;2023-03-17T15:29:48;9.57;;;5.00;;
61200;SDS011;47065;52.898;6.992;2023-03-17T15:32:15;6.97;;;4.22;;
61200;SDS011;47065;52.898;6.992;2023-03-17T15:34:44;7.38;;;4.47;;
61200;SDS011;47065;52.898;6.992;2023-03-17T15:37:18;7.72;;;5.05;;
61200;SDS011;47065;52.898;6.992;2023-03-17T15:39:46;7.97;;;4.72;;
61200;SDS011;47065;52.898;6.992;2023-03-17T15:42:13;7.53;;;4.43;;
61200;SDS011;47065;52.898;6.992;2023-03-17T15:44:40;8.27;;;5.28;;
61200;SDS011;47065;52.898;6.992;2023-03-17T15:47:06;6.90;;;4.85;;
61200;SDS011;47065;52.898;6.992;2023-03-17T15:49:35;8.85;;;4.10;;
61200;SDS011;47065;52.898;6.992;2023-03-17T15:52:01;8.50;;;4.68;;
61200;SDS011;47065;52.898;6.992;2023-03-17T15:54:26;6.68;;;4.25;;
61200;SDS011;47065;52.898;6.992;2023-03-17T15:56:52;7.18;;;4.85;;
61200;SDS011;47065;52.898;6.992;2023-03-17T15:59:18;10.30;;;4.95;;
61200;SDS011;47065;52.898;6.992;2023-03-17T16:01:43;6.05;;;4.38;;
61200;SDS011;47065;52.898;6.992;2023-03-17T16:04:09;8.35;;;4.65;;
61200;SDS011;47065;52.898;6.992;2023-03-17T16:06:35;10.02;;;6.38;;
61200;SDS011;47065;52.898;6.992;2023-03-17T16:09:01;8.45;;;4.80;;
61200;SDS011;47065;52.898;6.992;2023-03-17T16:11:28;6.88;;;4.68;;
61200;SDS011;47065;52.898;6.992;2023-03-17T16:13:56;6.90;;;5.35;;
61200;SDS011;47065;52.898;6.992;2023-03-17T16:16:28;7.45;;;4.82;;
61200;SDS011;47065;52.898;6.992;2023-03-17T16:19:00;9.43;;;5.15;;
61200;SDS011;47065;52.898;6.992;2023-03-17T16:21:28;6.75;;;5.07;;
61200;SDS011;47065;52.898;6.992;2023-03-17T16:23:55;8.52;;;5.05;;
61200;SDS011;47065;52.898;6.992;2023-03-17T16:26:21;7.53;;;5.47;;
61200;SDS011;47065;52.898;6.992;2023-03-17T16:28:47;9.75;;;5.10;;
61200;SDS011;47065;52.898;6.992;2023-03-17T16:31:18;6.50;;;4.82;;
61200;SDS011;47065;52.898;6.992;2023-03-17T16:33:46;7.32;;;5.18;;
61200;SDS011;47065;52.898;6.992;2023-03-17T16:36:14;11.10;;;5.18;;
61200;SDS011;47065;52.898;6.992;2023-03-17T16:38:41;6.32;;;4.63;;
61200;SDS011;47065;52.898;6.992;2023-03-17T16:43:44;6.93;;;5.43;;
61200;SDS011;47065;52.898;6.992;2023-03-17T16:46:14;7.40;;;5.07;;
61200;SDS011;47065;52.898;6.992;2023-03-17T16:48:41;8.63;;;4.78;;
61200;SDS011;47065;52.898;6.992;2023-03-17T16:51:06;7.60;;;5.78;;
61200;SDS011;47065;52.898;6.992;2023-03-17T16:53:32;9.07;;;5.55;;
61200;SDS011;47065;52.898;6.992;2023-03-17T16:55:58;11.10;;;5.43;;